Terminal Aerodrome Forecast
Issued by NWS

Home | Current Version | Previous Version | Text Only | Print | Product List | Glossary On
Versions: 1 2 3 4 5 6 7 8 9 10 11 12 13 14 15 16 17 18 19 20 21 22
000
FTUS43 KDVN 301500 AAB
TAFBRL
TAF AMD
KBRL 301503Z 3015/3112 27008KT P6SM SCT012
      TEMPO 3015/3018 BKN020
     FM301800 26008KT P6SM SCT035
     FM310900 VRB02KT 2SM BR SKC=

USA.gov is the U.S. government's official web portal to all federal, state and local government web resources and services.